createdAt,value
2023-02-02T00:00:05.302Z,978.89
2023-02-02T00:01:05.223Z,978.84
2023-02-02T00:02:05.142Z,979.00
2023-02-02T00:03:05.090Z,978.99
2023-02-02T00:04:05.128Z,978.90
2023-02-02T00:05:04.886Z,978.88
2023-02-02T00:06:04.798Z,978.88
2023-02-02T00:07:04.716Z,978.84
2023-02-02T00:08:04.632Z,978.83
2023-02-02T00:09:04.553Z,978.88
2023-02-02T00:10:04.463Z,978.81
2023-02-02T00:11:04.382Z,978.78
2023-02-02T00:12:04.295Z,978.74
2023-02-02T00:13:04.214Z,978.65
2023-02-02T00:14:04.124Z,978.74
2023-02-02T00:15:04.052Z,978.67
2023-02-02T00:16:03.997Z,978.76
2023-02-02T00:17:03.873Z,978.76
2023-02-02T00:18:03.791Z,978.71
2023-02-02T00:19:03.741Z,978.70
2023-02-02T00:20:03.628Z,978.64
2023-02-02T00:21:03.546Z,978.66
2023-02-02T00:22:03.488Z,978.63
2023-02-02T00:23:03.369Z,978.61
2023-02-02T00:24:03.281Z,978.70
2023-02-02T00:25:03.205Z,978.62
2023-02-02T00:26:03.118Z,978.61
2023-02-02T00:27:03.036Z,978.47
2023-02-02T00:28:02.946Z,978.60
2023-02-02T00:29:02.864Z,978.61
2023-02-02T00:30:02.784Z,978.54
2023-02-02T00:31:02.725Z,978.55
2023-02-02T00:32:02.618Z,978.53
2023-02-02T00:33:02.527Z,978.56
2023-02-02T00:34:02.440Z,978.44
2023-02-02T00:35:02.366Z,978.54
2023-02-02T00:36:02.276Z,978.40
2023-02-02T00:37:02.194Z,978.47
2023-02-02T00:38:02.108Z,978.50
2023-02-02T00:39:02.025Z,978.52
2023-02-02T00:40:01.941Z,978.55
2023-02-02T00:41:01.858Z,978.61
2023-02-02T00:42:01.771Z,978.56
2023-02-02T00:43:01.688Z,978.68
2023-02-02T00:44:01.602Z,978.58
2023-02-02T00:45:01.558Z,978.54
2023-02-02T00:46:01.508Z,978.64
2023-02-02T00:47:01.350Z,978.63
2023-02-02T00:48:01.271Z,978.64
2023-02-02T00:49:01.185Z,978.67
2023-02-02T00:50:01.120Z,978.66
2023-02-02T00:51:01.026Z,978.81
2023-02-02T00:52:00.926Z,978.72
2023-02-02T00:53:00.846Z,978.63
2023-02-02T00:54:00.764Z,978.66
2023-02-02T00:55:00.679Z,978.66
2023-02-02T00:56:00.602Z,978.72
2023-02-02T00:57:00.525Z,978.67
2023-02-02T00:58:00.422Z,978.72
2023-02-02T00:59:00.338Z,978.73
2023-02-02T01:00:00.268Z,978.81
2023-02-02T01:01:00.241Z,978.76
2023-02-02T01:02:00.119Z,978.75
2023-02-02T01:03:00.010Z,978.76
2023-02-02T01:03:59.922Z,978.77
2023-02-02T01:04:59.833Z,978.73
2023-02-02T01:05:59.749Z,978.84
2023-02-02T01:06:59.680Z,978.66
2023-02-02T01:07:59.581Z,978.67
2023-02-02T01:08:59.497Z,978.73
2023-02-02T01:09:59.420Z,978.61
2023-02-02T01:10:59.328Z,978.58
2023-02-02T01:11:59.247Z,978.67
2023-02-02T01:12:59.165Z,978.65
2023-02-02T01:13:59.081Z,978.77
2023-02-02T01:14:58.997Z,978.61
2023-02-02T01:15:58.908Z,978.68
2023-02-02T01:16:58.830Z,978.66
2023-02-02T01:17:58.746Z,978.77
2023-02-02T01:18:58.661Z,978.70
2023-02-02T01:19:58.571Z,978.58
2023-02-02T01:20:58.491Z,978.62
2023-02-02T01:21:58.400Z,978.68
2023-02-02T01:22:58.336Z,978.63
2023-02-02T01:23:58.252Z,978.67
2023-02-02T01:24:58.150Z,978.61
2023-02-02T01:25:58.066Z,978.55
2023-02-02T01:26:57.993Z,978.65
2023-02-02T01:27:57.895Z,978.55
2023-02-02T01:28:57.817Z,978.58
2023-02-02T01:29:57.725Z,978.58
2023-02-02T01:30:57.669Z,978.55
2023-02-02T01:31:57.609Z,978.63
2023-02-02T01:32:57.479Z,978.62
2023-02-02T01:33:57.393Z,978.70
2023-02-02T01:34:57.311Z,978.54
2023-02-02T01:35:57.219Z,978.56
2023-02-02T01:36:57.141Z,978.57
2023-02-02T01:37:57.055Z,978.67
2023-02-02T01:38:56.981Z,978.70
2023-02-02T01:39:56.889Z,978.60
2023-02-02T01:40:56.802Z,978.79
2023-02-02T01:41:56.717Z,978.75
2023-02-02T01:42:57.620Z,978.86
2023-02-02T01:43:56.547Z,978.69
2023-02-02T01:44:56.467Z,978.63
2023-02-02T01:45:56.403Z,978.76
2023-02-02T01:46:56.298Z,978.65
2023-02-02T01:47:56.211Z,978.74
2023-02-02T01:48:56.129Z,978.73
2023-02-02T01:49:56.039Z,978.85
2023-02-02T01:50:55.956Z,978.78
2023-02-02T01:51:55.872Z,978.77
2023-02-02T01:52:55.786Z,978.78
2023-02-02T01:53:55.706Z,978.80
2023-02-02T01:54:55.621Z,978.82
2023-02-02T01:55:55.533Z,978.80
2023-02-02T01:56:55.455Z,978.87
2023-02-02T01:57:55.365Z,978.99
2023-02-02T01:58:55.283Z,978.85
2023-02-02T01:59:55.196Z,978.82
2023-02-02T02:00:55.158Z,978.77
2023-02-02T02:01:55.052Z,978.68
2023-02-02T02:02:54.948Z,978.68
2023-02-02T02:03:54.867Z,978.73
2023-02-02T02:04:54.774Z,978.71
2023-02-02T02:05:54.703Z,978.70
2023-02-02T02:06:54.609Z,978.81
2023-02-02T02:07:54.520Z,978.79
2023-02-02T02:08:54.437Z,978.75
2023-02-02T02:09:54.353Z,978.78
2023-02-02T02:10:54.271Z,978.82
2023-02-02T02:11:54.219Z,978.84
2023-02-02T02:12:54.103Z,978.70
2023-02-02T02:13:54.021Z,978.78
2023-02-02T02:14:53.932Z,978.73
2023-02-02T02:15:53.846Z,978.83
2023-02-02T02:16:53.816Z,978.84
2023-02-02T02:17:53.682Z,978.79
2023-02-02T02:18:53.595Z,978.88
2023-02-02T02:19:53.513Z,978.88
2023-02-02T02:20:53.426Z,978.92
2023-02-02T02:21:53.346Z,978.84
2023-02-02T02:22:53.254Z,978.90
2023-02-02T02:23:53.174Z,978.84
2023-02-02T02:24:53.086Z,978.85
2023-02-02T02:25:53.001Z,978.98
2023-02-02T02:26:52.959Z,978.83
2023-02-02T02:27:52.836Z,978.91
2023-02-02T02:28:52.756Z,978.91
2023-02-02T02:29:52.668Z,978.83
2023-02-02T02:30:52.678Z,978.78
2023-02-02T02:31:52.585Z,978.84
2023-02-02T02:32:52.418Z,978.74
2023-02-02T02:33:52.330Z,978.81
2023-02-02T02:34:52.243Z,978.79
2023-02-02T02:35:52.161Z,978.75
2023-02-02T02:36:52.073Z,978.68
2023-02-02T02:37:51.992Z,978.78
2023-02-02T02:38:51.906Z,978.73
2023-02-02T02:39:51.828Z,978.71
2023-02-02T02:40:51.737Z,978.71
2023-02-02T02:41:51.653Z,978.71
2023-02-02T02:42:51.581Z,978.79
2023-02-02T02:43:51.512Z,978.77
2023-02-02T02:44:51.400Z,978.80
2023-02-02T02:45:51.401Z,978.79
2023-02-02T02:46:51.230Z,978.78
2023-02-02T02:47:51.150Z,978.79
2023-02-02T02:48:51.064Z,978.86
2023-02-02T02:49:50.978Z,978.75
2023-02-02T02:50:50.896Z,978.77
2023-02-02T02:51:50.815Z,978.86
2023-02-02T02:52:50.726Z,978.82
2023-02-02T02:53:50.641Z,978.81
2023-02-02T02:54:50.555Z,978.79
2023-02-02T02:55:50.473Z,978.79
2023-02-02T02:56:50.386Z,978.81
2023-02-02T02:57:50.314Z,978.85
2023-02-02T02:58:50.225Z,978.90
2023-02-02T02:59:50.139Z,978.97
2023-02-02T03:00:50.073Z,978.90
2023-02-02T03:01:50.060Z,978.97
2023-02-02T03:02:49.925Z,978.92
2023-02-02T03:03:49.806Z,979.06
2023-02-02T03:04:49.715Z,979.10
2023-02-02T03:05:49.637Z,979.07
2023-02-02T03:06:49.544Z,979.15
2023-02-02T03:07:49.492Z,979.12
2023-02-02T03:08:49.394Z,979.15
2023-02-02T03:09:49.300Z,979.20
2023-02-02T03:10:49.208Z,979.25
2023-02-02T03:11:49.128Z,979.20
2023-02-02T03:12:49.053Z,979.20
2023-02-02T03:13:48.954Z,979.17
2023-02-02T03:14:48.873Z,979.21
2023-02-02T03:15:48.850Z,979.29
2023-02-02T03:16:48.707Z,979.34
2023-02-02T03:17:48.623Z,979.31
2023-02-02T03:18:48.538Z,979.25
2023-02-02T03:19:48.453Z,979.19
2023-02-02T03:20:48.364Z,979.33
2023-02-02T03:21:48.281Z,979.41
2023-02-02T03:22:48.202Z,979.54
2023-02-02T03:23:48.114Z,979.65
2023-02-02T03:24:48.027Z,979.59
2023-02-02T03:25:47.955Z,979.62
2023-02-02T03:26:47.888Z,979.64
2023-02-02T03:27:47.785Z,979.54
2023-02-02T03:28:47.692Z,979.55
2023-02-02T03:29:47.613Z,979.60
2023-02-02T03:30:47.637Z,979.75
2023-02-02T03:31:47.445Z,979.87
2023-02-02T03:32:47.357Z,979.83
2023-02-02T03:33:47.275Z,979.72
2023-02-02T03:34:47.191Z,979.62
2023-02-02T03:35:47.108Z,979.57
2023-02-02T03:36:47.019Z,979.65
2023-02-02T03:37:46.952Z,979.81
2023-02-02T03:38:46.861Z,979.82
2023-02-02T03:39:46.776Z,979.85
2023-02-02T03:40:46.686Z,979.99
2023-02-02T03:41:46.599Z,979.97
2023-02-02T03:42:46.523Z,979.90
2023-02-02T03:43:46.431Z,979.84
2023-02-02T03:44:46.354Z,980.03
2023-02-02T03:45:46.286Z,980.14
2023-02-02T03:46:46.301Z,980.03
2023-02-02T03:47:46.133Z,979.92
2023-02-02T03:48:46.015Z,979.95
2023-02-02T03:49:45.930Z,979.90
2023-02-02T03:50:45.866Z,979.84
2023-02-02T03:51:45.771Z,979.74
2023-02-02T03:52:45.671Z,979.78
2023-02-02T03:53:45.585Z,979.84
2023-02-02T03:54:45.510Z,979.83
2023-02-02T03:55:45.419Z,979.84
2023-02-02T03:56:45.332Z,979.81
2023-02-02T03:57:45.252Z,979.87
2023-02-02T03:58:45.173Z,979.83
2023-02-02T03:59:45.080Z,979.77
2023-02-02T04:00:45.011Z,979.85
2023-02-02T04:01:44.923Z,979.86
2023-02-02T04:02:44.866Z,979.91
2023-02-02T04:03:44.746Z,979.91
2023-02-02T04:04:44.663Z,979.95
2023-02-02T04:05:44.580Z,979.90
2023-02-02T04:06:44.486Z,979.83
2023-02-02T04:07:44.409Z,979.89
2023-02-02T04:08:44.320Z,979.88
2023-02-02T04:09:44.255Z,979.87
2023-02-02T04:10:44.174Z,979.85
2023-02-02T04:11:44.072Z,979.85
2023-02-02T04:12:43.984Z,979.89
2023-02-02T04:13:43.910Z,979.85
2023-02-02T04:14:43.817Z,979.87
2023-02-02T04:15:43.729Z,979.79
2023-02-02T04:16:43.645Z,979.81
2023-02-02T04:17:43.563Z,979.78
2023-02-02T04:18:43.479Z,979.78
2023-02-02T04:19:43.391Z,979.77
2023-02-02T04:20:43.297Z,979.77
2023-02-02T04:21:43.218Z,979.74
2023-02-02T04:22:43.133Z,979.70
2023-02-02T04:23:43.048Z,979.65
2023-02-02T04:24:42.966Z,979.65
2023-02-02T04:25:42.882Z,979.61
2023-02-02T04:26:42.861Z,979.62
2023-02-02T04:27:42.710Z,979.67
2023-02-02T04:28:42.627Z,979.64
2023-02-02T04:29:42.540Z,979.63
2023-02-02T04:30:42.485Z,979.59
2023-02-02T04:31:42.404Z,979.54
2023-02-02T04:32:42.284Z,979.48
2023-02-02T04:33:42.198Z,979.50
2023-02-02T04:34:42.112Z,979.45
2023-02-02T04:35:42.049Z,979.46
2023-02-02T04:36:41.953Z,979.51
2023-02-02T04:37:41.869Z,979.47
2023-02-02T04:38:41.772Z,979.47
2023-02-02T04:39:41.692Z,979.40
2023-02-02T04:40:41.603Z,979.40
2023-02-02T04:41:41.520Z,979.35
2023-02-02T04:42:41.430Z,979.37
2023-02-02T04:43:41.351Z,979.41
2023-02-02T04:44:41.268Z,979.39
2023-02-02T04:45:41.205Z,979.41
2023-02-02T04:46:41.097Z,979.40
2023-02-02T04:47:41.011Z,979.39
2023-02-02T04:48:40.932Z,979.37
2023-02-02T04:49:40.844Z,979.39
2023-02-02T04:50:40.761Z,979.46
2023-02-02T04:51:40.677Z,979.40
2023-02-02T04:52:40.592Z,979.40
2023-02-02T04:53:40.505Z,979.40
2023-02-02T04:54:40.417Z,979.40
2023-02-02T04:55:40.330Z,979.38
2023-02-02T04:56:40.253Z,979.38
2023-02-02T04:57:40.157Z,979.49
2023-02-02T04:58:40.071Z,979.41
2023-02-02T04:59:42.323Z,979.43
2023-02-02T05:00:39.905Z,979.46
2023-02-02T05:01:39.821Z,979.49
2023-02-02T05:02:39.731Z,979.43
2023-02-02T05:03:39.648Z,979.49
2023-02-02T05:04:39.575Z,979.50
2023-02-02T05:05:39.481Z,979.54
2023-02-02T05:06:39.401Z,979.50
2023-02-02T05:07:39.314Z,979.52
2023-02-02T05:08:39.229Z,979.48
2023-02-02T05:09:39.148Z,979.50
2023-02-02T05:10:39.057Z,979.51
2023-02-02T05:11:39.013Z,979.47
2023-02-02T05:12:38.891Z,979.52
2023-02-02T05:13:38.802Z,979.48
2023-02-02T05:14:38.717Z,979.50
2023-02-02T05:15:38.632Z,979.44
2023-02-02T05:16:38.685Z,979.48
2023-02-02T05:17:38.465Z,979.45
2023-02-02T05:18:38.381Z,979.48
2023-02-02T05:19:38.297Z,979.49
2023-02-02T05:20:38.206Z,979.42
2023-02-02T05:21:38.123Z,979.47
2023-02-02T05:22:38.038Z,979.43
2023-02-02T05:23:37.955Z,979.42
2023-02-02T05:24:37.867Z,979.49
2023-02-02T05:25:37.783Z,979.50
2023-02-02T05:26:37.726Z,979.46
2023-02-02T05:27:37.624Z,979.51
2023-02-02T05:28:37.529Z,979.45
2023-02-02T05:29:37.446Z,979.45
2023-02-02T05:30:37.386Z,979.47
2023-02-02T05:31:37.321Z,979.44
2023-02-02T05:32:37.193Z,979.50
2023-02-02T05:33:37.139Z,979.53
2023-02-02T05:34:37.021Z,979.50
2023-02-02T05:35:36.945Z,979.53
2023-02-02T05:36:36.850Z,979.48
2023-02-02T05:37:36.771Z,979.52
2023-02-02T05:38:36.684Z,979.56
2023-02-02T05:39:36.597Z,979.54
2023-02-02T05:40:36.529Z,979.57
2023-02-02T05:41:36.431Z,979.57
2023-02-02T05:42:36.341Z,979.59
2023-02-02T05:43:36.265Z,979.55
2023-02-02T05:44:36.178Z,979.60
2023-02-02T05:45:36.117Z,979.59
2023-02-02T05:46:36.004Z,979.57
2023-02-02T05:47:35.933Z,979.56
2023-02-02T05:48:35.837Z,979.58
2023-02-02T05:49:35.750Z,979.62
2023-02-02T05:50:35.671Z,979.58
2023-02-02T05:51:35.583Z,979.60
2023-02-02T05:52:35.498Z,979.65
2023-02-02T05:53:35.435Z,979.60
2023-02-02T05:54:35.351Z,979.60
2023-02-02T05:55:35.247Z,979.60
2023-02-02T05:56:35.170Z,979.57
2023-02-02T05:57:35.075Z,979.60
2023-02-02T05:58:34.991Z,979.62
2023-02-02T05:59:34.909Z,979.63
2023-02-02T06:00:34.825Z,979.62
2023-02-02T06:01:34.741Z,979.65
2023-02-02T06:02:34.655Z,979.71
2023-02-02T06:03:34.670Z,979.68
2023-02-02T06:04:34.486Z,979.73
2023-02-02T06:05:34.403Z,979.73
2023-02-02T06:06:34.315Z,979.72
2023-02-02T06:07:34.242Z,979.77
2023-02-02T06:08:34.160Z,979.80
2023-02-02T06:09:34.066Z,979.79
2023-02-02T06:10:33.983Z,979.81
2023-02-02T06:11:33.890Z,979.80
2023-02-02T06:12:33.816Z,979.85
2023-02-02T06:13:33.725Z,979.88
2023-02-02T06:14:33.638Z,979.88
2023-02-02T06:15:33.637Z,979.82
2023-02-02T06:16:33.475Z,979.86
2023-02-02T06:17:33.385Z,979.86
2023-02-02T06:18:33.302Z,979.89
2023-02-02T06:19:33.214Z,979.84
2023-02-02T06:20:33.149Z,979.88
2023-02-02T06:21:33.068Z,979.91
2023-02-02T06:22:32.975Z,980.00
2023-02-02T06:23:32.883Z,979.97
2023-02-02T06:24:32.814Z,979.99
2023-02-02T06:25:32.708Z,979.99
2023-02-02T06:26:32.656Z,980.00
2023-02-02T06:27:32.545Z,980.07
2023-02-02T06:28:32.458Z,980.09
2023-02-02T06:29:32.377Z,980.16
2023-02-02T06:30:32.429Z,980.16
2023-02-02T06:31:32.259Z,980.26
2023-02-02T06:32:32.120Z,980.22
2023-02-02T06:33:32.031Z,980.26
2023-02-02T06:34:31.953Z,980.30
2023-02-02T06:35:31.870Z,980.28
2023-02-02T06:36:31.783Z,980.28
2023-02-02T06:37:31.708Z,980.39
2023-02-02T06:38:31.617Z,980.44
2023-02-02T06:39:31.527Z,980.39
2023-02-02T06:40:31.451Z,980.24
2023-02-02T06:41:31.359Z,980.13
2023-02-02T06:42:31.281Z,980.27
2023-02-02T06:43:31.188Z,980.38
2023-02-02T06:44:31.105Z,980.34
2023-02-02T06:45:31.023Z,980.36
2023-02-02T06:46:30.994Z,980.40
2023-02-02T06:47:30.859Z,980.47
2023-02-02T06:48:30.773Z,980.45
2023-02-02T06:49:30.685Z,980.39
2023-02-02T06:50:30.602Z,980.39
2023-02-02T06:51:30.523Z,980.43
2023-02-02T06:52:30.435Z,980.45
2023-02-02T06:53:30.347Z,980.54
2023-02-02T06:54:30.268Z,980.53
2023-02-02T06:55:30.183Z,980.54
2023-02-02T06:56:30.091Z,980.53
2023-02-02T06:57:30.009Z,980.53
2023-02-02T06:58:29.993Z,980.57
2023-02-02T06:59:29.839Z,980.55
2023-02-02T07:00:29.916Z,980.59
2023-02-02T07:01:29.723Z,980.51
2023-02-02T07:02:29.611Z,980.45
2023-02-02T07:03:29.505Z,980.54
2023-02-02T07:04:29.426Z,980.51
2023-02-02T07:05:30.714Z,980.54
2023-02-02T07:06:29.257Z,980.50
2023-02-02T07:07:29.163Z,980.51
2023-02-02T07:08:29.092Z,980.52
2023-02-02T07:09:29.000Z,980.57
2023-02-02T07:11:12.718Z,980.61
2023-02-02T07:11:28.831Z,980.56
2023-02-02T07:12:28.761Z,980.52
2023-02-02T07:13:28.653Z,980.63
2023-02-02T07:14:28.578Z,980.67
2023-02-02T07:15:28.491Z,980.70
2023-02-02T07:16:28.404Z,980.72
2023-02-02T07:17:28.320Z,980.68
2023-02-02T07:18:28.237Z,980.68
2023-02-02T07:19:28.169Z,980.70
2023-02-02T07:20:28.076Z,980.71
2023-02-02T07:21:27.983Z,980.76
2023-02-02T07:22:27.897Z,980.75
2023-02-02T07:23:27.817Z,980.79
2023-02-02T07:24:27.728Z,980.77
2023-02-02T07:25:27.774Z,980.88
2023-02-02T07:26:27.607Z,980.87
2023-02-02T07:27:27.473Z,980.88
2023-02-02T07:28:27.397Z,980.84
2023-02-02T07:29:27.302Z,980.83
2023-02-02T07:30:27.270Z,980.80
2023-02-02T07:31:27.187Z,980.81
2023-02-02T07:32:27.051Z,980.80
2023-02-02T07:33:26.963Z,980.82
2023-02-02T07:34:26.885Z,980.80
2023-02-02T07:35:26.924Z,980.82
2023-02-02T07:36:26.712Z,980.78
2023-02-02T07:37:26.627Z,980.82
2023-02-02T07:38:26.539Z,980.80
2023-02-02T07:39:26.455Z,980.72
2023-02-02T07:40:26.372Z,980.77
2023-02-02T07:41:26.283Z,980.84
2023-02-02T07:42:26.200Z,980.83
2023-02-02T07:43:26.114Z,980.85
2023-02-02T07:44:26.031Z,980.82
2023-02-02T07:45:27.949Z,980.85
2023-02-02T07:46:25.931Z,980.85
2023-02-02T07:47:25.782Z,980.79
2023-02-02T07:48:25.691Z,980.78
2023-02-02T07:49:25.606Z,980.73
2023-02-02T07:50:25.523Z,980.73
2023-02-02T07:51:25.444Z,980.74
2023-02-02T07:52:25.359Z,980.79
2023-02-02T07:53:25.273Z,980.77
2023-02-02T07:54:25.186Z,980.76
2023-02-02T07:55:25.100Z,980.74
2023-02-02T07:56:25.040Z,980.76
2023-02-02T07:57:24.929Z,980.76
2023-02-02T07:58:24.840Z,980.79
2023-02-02T07:59:24.770Z,980.75
2023-02-02T08:00:24.712Z,980.75
2023-02-02T08:01:24.604Z,980.74
2023-02-02T08:02:24.512Z,980.65
2023-02-02T08:03:24.430Z,980.68
2023-02-02T08:04:24.333Z,980.75
2023-02-02T08:05:24.679Z,980.70
2023-02-02T08:06:24.162Z,980.72
2023-02-02T08:07:24.077Z,980.78
2023-02-02T08:08:23.991Z,980.70
2023-02-02T08:09:23.911Z,980.74
2023-02-02T08:10:23.821Z,980.75
2023-02-02T08:11:23.741Z,980.73
2023-02-02T08:12:24.865Z,980.69
2023-02-02T08:13:23.583Z,980.75
2023-02-02T08:14:23.488Z,980.64
2023-02-02T08:15:23.559Z,980.62
2023-02-02T08:16:23.349Z,980.66
2023-02-02T08:17:23.242Z,980.66
2023-02-02T08:18:23.147Z,980.70
2023-02-02T08:19:23.057Z,980.59
2023-02-02T08:20:22.976Z,980.72
2023-02-02T08:21:22.895Z,980.66
2023-02-02T08:22:22.812Z,980.65
2023-02-02T08:23:22.716Z,980.70
2023-02-02T08:24:22.641Z,980.59
2023-02-02T08:25:22.893Z,980.65
2023-02-02T08:26:22.507Z,980.63
2023-02-02T08:27:22.380Z,980.61
2023-02-02T08:28:22.289Z,980.59
2023-02-02T08:29:22.204Z,980.62
2023-02-02T08:30:22.170Z,980.57
2023-02-02T08:31:22.102Z,980.59
2023-02-02T08:32:21.957Z,980.64
2023-02-02T08:33:21.866Z,980.55
2023-02-02T08:34:21.798Z,980.54
2023-02-02T08:35:21.803Z,980.59
2023-02-02T08:36:21.608Z,980.60
2023-02-02T08:37:21.519Z,980.62
2023-02-02T08:38:21.439Z,980.64
2023-02-02T08:39:21.359Z,980.62
2023-02-02T08:40:21.371Z,980.59
2023-02-02T08:41:21.181Z,980.56
2023-02-02T08:42:21.094Z,980.62
2023-02-02T08:43:21.010Z,980.59
2023-02-02T08:44:20.928Z,980.65
2023-02-02T08:46:01.139Z,980.60
2023-02-02T08:46:21.229Z,980.61
2023-02-02T08:47:20.668Z,980.57
2023-02-02T08:48:20.588Z,980.61
2023-02-02T08:49:20.506Z,980.56
2023-02-02T08:50:20.440Z,980.64
2023-02-02T08:51:20.352Z,980.58
2023-02-02T08:52:20.247Z,980.60
2023-02-02T08:53:20.158Z,980.56
2023-02-02T08:54:20.079Z,980.59
2023-02-02T08:55:19.996Z,980.60
2023-02-02T08:56:19.910Z,980.58
2023-02-02T08:57:19.837Z,980.52
2023-02-02T08:58:19.745Z,980.58
2023-02-02T08:59:19.654Z,980.61
2023-02-02T09:00:19.568Z,980.63
2023-02-02T09:01:19.528Z,980.67
2023-02-02T09:02:19.440Z,980.65
2023-02-02T09:03:19.314Z,980.66
2023-02-02T09:04:19.228Z,980.62
2023-02-02T09:05:19.152Z,980.64
2023-02-02T09:06:19.058Z,980.63
2023-02-02T09:07:21.178Z,980.73
2023-02-02T09:08:18.920Z,980.63
2023-02-02T09:09:18.801Z,980.58
2023-02-02T09:10:18.722Z,980.65
2023-02-02T09:11:18.649Z,980.68
2023-02-02T09:12:18.555Z,980.73
2023-02-02T09:13:18.475Z,980.62
2023-02-02T09:14:18.388Z,980.64
2023-02-02T09:15:18.295Z,980.65
2023-02-02T09:16:18.286Z,980.71
2023-02-02T09:17:18.134Z,980.64
2023-02-02T09:18:18.054Z,980.61
2023-02-02T09:19:17.961Z,980.58
2023-02-02T09:20:20.287Z,980.70
2023-02-02T09:21:17.794Z,980.71
2023-02-02T09:22:17.714Z,980.68
2023-02-02T09:23:17.622Z,980.64
2023-02-02T09:24:17.543Z,980.72
2023-02-02T09:25:17.457Z,980.69
2023-02-02T09:26:17.525Z,980.76
2023-02-02T09:27:17.281Z,980.71
2023-02-02T09:28:17.200Z,980.75
2023-02-02T09:29:17.112Z,980.80
2023-02-02T09:30:17.027Z,980.72
2023-02-02T09:31:17.115Z,980.73
2023-02-02T09:32:16.865Z,980.68
2023-02-02T09:33:16.778Z,980.66
2023-02-02T09:34:16.701Z,980.76
2023-02-02T09:35:16.603Z,980.77
2023-02-02T09:36:16.526Z,980.77
2023-02-02T09:37:16.455Z,980.80
2023-02-02T09:38:16.359Z,980.78
2023-02-02T09:39:16.270Z,980.78
2023-02-02T09:40:16.182Z,980.80
2023-02-02T09:41:16.098Z,980.84
2023-02-02T09:42:16.016Z,980.79
2023-02-02T09:43:15.932Z,980.81
2023-02-02T09:44:15.866Z,980.79
2023-02-02T09:45:15.757Z,980.82
2023-02-02T09:46:15.754Z,980.90
2023-02-02T09:47:15.604Z,980.91
2023-02-02T09:48:15.507Z,980.86
2023-02-02T09:49:15.426Z,980.84
2023-02-02T09:50:15.348Z,980.88
2023-02-02T09:51:15.263Z,980.92
2023-02-02T09:52:15.169Z,980.91
2023-02-02T09:53:15.082Z,980.90
2023-02-02T09:54:15.009Z,980.94
2023-02-02T09:55:14.917Z,980.96
2023-02-02T09:56:14.835Z,981.09
2023-02-02T09:57:14.762Z,980.97
2023-02-02T09:58:14.683Z,981.01
2023-02-02T09:59:20.435Z,981.02
2023-02-02T10:00:14.495Z,981.02
2023-02-02T10:01:14.439Z,981.05
2023-02-02T10:02:14.333Z,981.01
2023-02-02T10:03:14.250Z,981.06
2023-02-02T10:04:14.238Z,981.07
2023-02-02T10:05:14.071Z,981.11
2023-02-02T10:06:13.992Z,981.10
2023-02-02T10:07:13.903Z,981.10
2023-02-02T10:08:16.608Z,981.12
2023-02-02T10:09:13.743Z,981.14
2023-02-02T10:10:13.658Z,981.08
2023-02-02T10:11:13.570Z,981.01
2023-02-02T10:12:13.502Z,981.16
2023-02-02T10:13:13.400Z,981.03
2023-02-02T10:14:13.315Z,981.16
2023-02-02T10:15:13.245Z,981.01
2023-02-02T10:16:13.201Z,981.04
2023-02-02T10:17:13.070Z,981.09
2023-02-02T10:18:13.000Z,981.07
2023-02-02T10:19:12.898Z,981.04
2023-02-02T10:20:12.815Z,981.05
2023-02-02T10:21:12.732Z,981.08
2023-02-02T10:22:12.650Z,981.15
2023-02-02T10:23:12.573Z,981.01
2023-02-02T10:24:12.473Z,981.05
2023-02-02T10:25:12.390Z,981.03
2023-02-02T10:26:12.308Z,981.06
2023-02-02T10:27:12.235Z,981.09
2023-02-02T10:28:12.138Z,981.08
2023-02-02T10:29:12.060Z,980.97
2023-02-02T10:30:11.975Z,980.96
2023-02-02T10:31:12.013Z,980.97
2023-02-02T10:32:11.860Z,981.07
2023-02-02T10:33:11.730Z,981.06
2023-02-02T10:34:11.641Z,981.10
2023-02-02T10:35:14.174Z,981.02
2023-02-02T10:36:11.466Z,981.15
2023-02-02T10:37:11.397Z,981.09
2023-02-02T10:38:11.298Z,981.14
2023-02-02T10:39:11.222Z,981.02
2023-02-02T10:40:11.309Z,981.09
2023-02-02T10:41:11.050Z,981.04
2023-02-02T10:42:10.972Z,981.11
2023-02-02T10:43:10.881Z,981.08
2023-02-02T10:44:10.808Z,981.07
2023-02-02T10:45:10.719Z,981.17
2023-02-02T10:46:10.661Z,981.08
2023-02-02T10:47:10.561Z,981.09
2023-02-02T10:48:10.462Z,981.03
2023-02-02T10:49:10.381Z,981.21
2023-02-02T10:50:10.366Z,981.11
2023-02-02T10:51:10.268Z,981.07
2023-02-02T10:52:10.132Z,981.01
2023-02-02T10:53:10.667Z,981.08
2023-02-02T10:54:09.959Z,981.03
2023-02-02T10:55:09.895Z,981.15
2023-02-02T10:56:09.794Z,980.97
2023-02-02T10:57:09.712Z,981.07
2023-02-02T10:58:09.624Z,981.07
2023-02-02T10:59:09.539Z,981.02
2023-02-02T11:00:09.453Z,981.05
2023-02-02T11:01:09.399Z,981.10
2023-02-02T11:02:20.288Z,981.03
2023-02-02T11:03:09.247Z,981.08
2023-02-02T11:04:09.123Z,981.10
2023-02-02T11:05:09.039Z,981.05
2023-02-02T11:06:08.958Z,981.02
2023-02-02T11:07:08.872Z,981.11
2023-02-02T11:08:08.788Z,980.99
2023-02-02T11:09:08.712Z,980.99
2023-02-02T11:10:08.618Z,980.96
2023-02-02T11:11:08.537Z,981.00
2023-02-02T11:12:08.460Z,981.00
2023-02-02T11:13:08.371Z,981.02
2023-02-02T11:14:08.311Z,980.99
2023-02-02T11:15:08.215Z,981.07
2023-02-02T11:16:08.187Z,981.06
2023-02-02T11:17:08.041Z,980.99
2023-02-02T11:18:07.965Z,981.10
2023-02-02T11:19:07.876Z,981.00
2023-02-02T11:20:07.779Z,981.07
2023-02-02T11:21:07.698Z,980.98
2023-02-02T11:22:07.619Z,981.10
2023-02-02T11:23:07.541Z,981.07
2023-02-02T11:24:07.464Z,981.07
2023-02-02T11:25:07.367Z,981.11
2023-02-02T11:26:07.283Z,981.06
2023-02-02T11:27:07.209Z,981.07
2023-02-02T11:28:07.120Z,981.12
2023-02-02T11:29:07.027Z,981.13
2023-02-02T11:30:06.947Z,981.15
2023-02-02T11:31:06.990Z,981.12
2023-02-02T11:32:06.779Z,981.09
2023-02-02T11:33:06.694Z,981.12
2023-02-02T11:34:06.617Z,981.03
2023-02-02T11:35:06.535Z,981.15
2023-02-02T11:36:06.473Z,981.14
2023-02-02T11:37:06.362Z,981.07
2023-02-02T11:38:06.275Z,981.15
2023-02-02T11:39:06.195Z,981.09
2023-02-02T11:40:06.110Z,981.15
2023-02-02T11:41:06.025Z,981.04
2023-02-02T11:42:05.950Z,981.12
2023-02-02T11:43:05.858Z,981.04
2023-02-02T11:44:05.775Z,981.04
2023-02-02T11:45:05.692Z,981.08
2023-02-02T11:46:05.736Z,981.16
2023-02-02T11:47:05.534Z,981.13
2023-02-02T11:48:05.438Z,981.31
2023-02-02T11:49:05.367Z,981.14
2023-02-02T11:50:05.281Z,981.15
2023-02-02T11:51:05.281Z,981.20
2023-02-02T11:52:05.114Z,981.13
2023-02-02T11:53:05.027Z,981.19
2023-02-02T11:54:04.943Z,981.19
2023-02-02T11:55:04.859Z,981.17
2023-02-02T11:56:04.778Z,981.25
2023-02-02T11:57:04.690Z,981.12
2023-02-02T11:58:04.611Z,981.11
2023-02-02T11:59:04.569Z,981.05
2023-02-02T12:00:04.444Z,981.11
2023-02-02T12:01:04.355Z,981.10
2023-02-02T12:02:04.324Z,981.12
2023-02-02T12:03:04.190Z,981.01
2023-02-02T12:04:04.146Z,981.07
2023-02-02T12:05:04.031Z,981.04
2023-02-02T12:06:03.952Z,981.08
2023-02-02T12:07:03.858Z,981.03
2023-02-02T12:08:03.775Z,981.12
2023-02-02T12:09:03.695Z,980.99
2023-02-02T12:10:03.610Z,981.02
2023-02-02T12:11:03.530Z,981.17
2023-02-02T12:12:03.449Z,981.06
2023-02-02T12:13:03.365Z,981.15
2023-02-02T12:14:03.291Z,981.14
2023-02-02T12:15:03.206Z,981.16
2023-02-02T12:16:03.131Z,981.15
2023-02-02T12:17:03.025Z,981.16
2023-02-02T12:18:02.966Z,981.15
2023-02-02T12:19:02.854Z,981.22
2023-02-02T12:20:02.780Z,981.13
2023-02-02T12:21:02.693Z,981.22
2023-02-02T12:22:02.611Z,981.15
2023-02-02T12:23:02.534Z,981.13
2023-02-02T12:24:02.441Z,981.17
2023-02-02T12:25:02.394Z,981.10
2023-02-02T12:26:02.278Z,981.18
2023-02-02T12:27:02.273Z,981.20